Time,TemperatureF,DewpointF,PressureIn,WindDirection,WindDirectionDegrees,WindSpeedMPH,WindSpeedGustMPH,Humidity,HourlyPrecipIn,Conditions,Clouds,dailyrainin,SoftwareType,DateUTC
2013-05-09 00:01:00,67.2,64.8,30.06,SSW,198,0.0,1.0,92,0.00,,---,0.00,VWS V14.01,2013-05-09 04:01:00,
2013-05-09 00:06:00,67.2,64.8,30.06,WNW,289,1.0,2.0,92,0.00,,---,0.00,VWS V14.01,2013-05-09 04:06:00,
2013-05-09 00:11:00,67.1,64.7,30.06,NW,308,1.0,2.0,92,0.00,,---,0.00,VWS V14.01,2013-05-09 04:11:00,
2013-05-09 00:16:00,67.1,64.7,30.06,WSW,255,2.0,2.0,92,0.00,,---,0.00,VWS V14.01,2013-05-09 04:16:00,
2013-05-09 00:21:00,67.1,64.7,30.06,SW,235,0.0,1.0,92,0.00,,---,0.00,VWS V14.01,2013-05-09 04:21:00,
2013-05-09 00:26:00,67.1,64.7,30.06,WSW,239,2.0,2.0,92,0.00,,---,0.00,VWS V14.01,2013-05-09 04:26:00,
2013-05-09 00:31:00,67.1,64.7,30.06,West,259,2.0,2.0,92,0.00,,---,0.00,VWS V14.01,2013-05-09 04:31:00,
2013-05-09 00:36:00,67.0,64.6,30.06,WSW,243,3.0,3.0,92,0.00,,---,0.00,VWS V14.01,2013-05-09 04:36:00,
2013-05-09 00:41:00,67.1,64.7,30.06,WNW,298,2.0,4.0,92,0.00,,---,0.00,VWS V14.01,2013-05-09 04:41:00,
2013-05-09 00:46:00,67.1,64.7,30.06,WSW,246,4.0,4.0,92,0.00,,---,0.00,VWS V14.01,2013-05-09 04:46:00,
2013-05-09 00:51:00,67.1,64.7,30.05,West,267,2.0,4.0,92,0.00,,---,0.00,VWS V14.01,2013-05-09 04:51:00,
2013-05-09 00:56:00,67.1,64.7,30.05,West,281,3.0,6.0,92,0.00,,---,0.00,VWS V14.01,2013-05-09 04:56:00,
2013-05-09 01:01:00,67.2,64.8,30.05,SW,226,3.0,7.0,92,0.00,,---,0.00,VWS V14.01,2013-05-09 05:01:00,
2013-05-09 01:06:00,67.1,64.7,30.05,West,270,3.0,4.0,92,0.00,,---,0.00,VWS V14.01,2013-05-09 05:06:00,
2013-05-09 01:11:00,67.1,65.0,30.05,WSW,257,5.0,6.0,93,0.00,,---,0.00,VWS V14.01,2013-05-09 05:11:00,
2013-05-09 01:16:00,67.2,65.1,30.05,WSW,256,3.0,4.0,93,0.00,,---,0.00,VWS V14.01,2013-05-09 05:16:00,
2013-05-09 01:21:00,67.2,65.1,30.05,West,277,1.0,5.0,93,0.00,,---,0.00,VWS V14.01,2013-05-09 05:21:00,
2013-05-09 01:26:00,67.1,65.0,30.05,SW,233,2.0,6.0,93,0.00,,---,0.00,VWS V14.01,2013-05-09 05:26:00,
2013-05-09 01:31:00,67.1,65.0,30.05,South,174,2.0,7.0,93,0.00,,---,0.00,VWS V14.01,2013-05-09 05:31:00,
2013-05-09 01:36:00,67.1,65.0,30.05,WSW,250,4.0,4.0,93,0.00,,---,0.00,VWS V14.01,2013-05-09 05:36:00,
2013-05-09 01:41:00,67.1,65.0,30.04,West,263,2.0,7.0,93,0.00,,---,0.00,VWS V14.01,2013-05-09 05:41:00,
2013-05-09 01:46:00,67.1,65.0,30.04,WNW,295,1.0,3.0,93,0.00,,---,0.00,VWS V14.01,2013-05-09 05:46:00,
2013-05-09 01:51:00,67.1,65.3,30.04,West,270,5.0,5.0,94,0.00,,---,0.00,VWS V14.01,2013-05-09 05:51:00,
2013-05-09 01:56:00,67.1,65.3,30.04,West,262,4.0,4.0,94,0.00,,---,0.00,VWS V14.01,2013-05-09 05:56:00,
2013-05-09 02:01:00,67.1,65.3,30.04,WSW,249,3.0,5.0,94,0.00,,---,0.00,VWS V14.01,2013-05-09 06:01:00,
2013-05-09 02:06:00,67.1,65.3,30.04,WSW,258,2.0,4.0,94,0.00,,---,0.00,VWS V14.01,2013-05-09 06:06:00,
2013-05-09 02:11:00,67.0,65.2,30.04,WSW,250,2.0,4.0,94,0.00,,---,0.00,VWS V14.01,2013-05-09 06:11:00,
2013-05-09 02:16:00,67.0,65.2,30.04,SW,214,2.0,5.0,94,0.00,,---,0.00,VWS V14.01,2013-05-09 06:16:00,
2013-05-09 02:21:00,66.9,65.1,30.04,WSW,250,3.0,4.0,94,0.00,,---,0.00,VWS V14.01,2013-05-09 06:21:00,
2013-05-09 02:26:00,66.8,65.0,30.04,WNW,283,2.0,4.0,94,0.00,,---,0.00,VWS V14.01,2013-05-09 06:26:00,
2013-05-09 02:31:00,66.7,64.9,30.03,WSW,248,2.0,2.0,94,0.00,,---,0.00,VWS V14.01,2013-05-09 06:31:00,
2013-05-09 02:36:00,66.5,64.7,30.03,WNW,294,0.0,2.0,94,0.00,,---,0.00,VWS V14.01,2013-05-09 06:36:00,
2013-05-09 02:41:00,66.4,64.6,30.03,WSW,243,0.0,2.0,94,0.00,,---,0.00,VWS V14.01,2013-05-09 06:41:00,
2013-05-09 02:46:00,66.4,64.6,30.03,WSW,253,2.0,2.0,94,0.00,,---,0.00,VWS V14.01,2013-05-09 06:46:00,
2013-05-09 02:51:00,66.3,64.5,30.03,West,273,1.0,3.0,94,0.00,,---,0.00,VWS V14.01,2013-05-09 06:51:00,
2013-05-09 02:56:00,66.3,64.5,30.03,WNW,289,1.0,3.0,94,0.00,,---,0.00,VWS V14.01,2013-05-09 06:56:00,
2013-05-09 03:01:00,66.3,64.5,30.03,West,268,1.0,3.0,94,0.00,,---,0.00,VWS V14.01,2013-05-09 07:01:00,
2013-05-09 03:06:00,66.2,64.4,30.03,West,281,2.0,4.0,94,0.00,,---,0.00,VWS V14.01,2013-05-09 07:06:00,
2013-05-09 03:11:00,66.2,64.4,30.03,West,269,1.0,5.0,94,0.00,,---,0.00,VWS V14.01,2013-05-09 07:11:00,
2013-05-09 03:16:00,66.1,64.3,30.03,West,279,2.0,4.0,94,0.00,,---,0.00,VWS V14.01,2013-05-09 07:16:00,
2013-05-09 03:21:00,66.0,63.9,30.03,West,260,3.0,6.0,93,0.00,,---,0.00,VWS V14.01,2013-05-09 07:21:00,
2013-05-09 03:26:00,66.0,63.9,30.03,West,272,1.0,5.0,93,0.00,,---,0.00,VWS V14.01,2013-05-09 07:26:00,
2013-05-09 03:31:00,65.9,63.8,30.03,WSW,246,1.0,3.0,93,0.00,,---,0.00,VWS V14.01,2013-05-09 07:31:00,
2013-05-09 03:36:00,65.8,63.7,30.03,SW,219,0.0,1.0,93,0.00,,---,0.00,VWS V14.01,2013-05-09 07:36:00,
2013-05-09 03:41:00,65.8,64.0,30.03,WSW,244,1.0,4.0,94,0.00,,---,0.00,VWS V14.01,2013-05-09 07:41:00,
2013-05-09 03:46:00,65.8,63.7,30.03,WSW,255,0.0,2.0,93,0.00,,---,0.00,VWS V14.01,2013-05-09 07:46:00,
2013-05-09 03:51:00,65.7,63.6,30.03,West,271,2.0,4.0,93,0.00,,---,0.00,VWS V14.01,2013-05-09 07:51:00,
2013-05-09 03:56:00,65.6,63.5,30.03,WSW,257,0.0,3.0,93,0.00,,---,0.00,VWS V14.01,2013-05-09 07:56:00,
2013-05-09 04:01:00,65.6,63.5,30.03,WSW,240,1.0,3.0,93,0.00,,---,0.00,VWS V14.01,2013-05-09 08:01:00,
2013-05-09 04:06:00,65.5,63.4,30.03,WNW,283,1.0,4.0,93,0.00,,---,0.00,VWS V14.01,2013-05-09 08:06:00,
2013-05-09 04:11:00,65.6,63.5,30.03,West,270,1.0,2.0,93,0.00,,---,0.00,VWS V14.01,2013-05-09 08:11:00,
2013-05-09 04:16:00,65.5,63.4,30.03,SW,226,1.0,2.0,93,0.00,,---,0.00,VWS V14.01,2013-05-09 08:16:00,
2013-05-09 04:21:00,65.5,63.4,30.03,West,271,3.0,4.0,93,0.00,,---,0.00,VWS V14.01,2013-05-09 08:21:00,
2013-05-09 04:26:00,65.5,63.4,30.03,WSW,248,1.0,2.0,93,0.00,,---,0.00,VWS V14.01,2013-05-09 08:26:00,
2013-05-09 04:31:00,65.4,63.3,30.03,SW,219,3.0,3.0,93,0.00,,---,0.00,VWS V14.01,2013-05-09 08:31:00,
2013-05-09 04:36:00,65.4,63.3,30.03,WNW,284,2.0,4.0,93,0.00,,---,0.00,VWS V14.01,2013-05-09 08:36:00,
2013-05-09 04:41:00,65.4,63.3,30.03,WSW,255,1.0,5.0,93,0.00,,---,0.00,VWS V14.01,2013-05-09 08:41:00,
2013-05-09 04:46:00,65.5,63.4,30.03,West,259,1.0,2.0,93,0.00,,---,0.00,VWS V14.01,2013-05-09 08:46:00,
2013-05-09 04:51:00,65.4,63.0,30.03,West,279,2.0,3.0,92,0.00,,---,0.00,VWS V14.01,2013-05-09 08:51:00,
2013-05-09 04:56:00,65.4,63.0,30.04,West,273,1.0,3.0,92,0.00,,---,0.00,VWS V14.01,2013-05-09 08:56:00,
2013-05-09 05:01:00,65.4,63.0,30.04,WSW,245,0.0,3.0,92,0.00,,---,0.00,VWS V14.01,2013-05-09 09:01:00,
2013-05-09 05:06:00,65.3,62.9,30.03,South,188,1.0,1.0,92,0.00,,---,0.00,VWS V14.01,2013-05-09 09:06:00,
2013-05-09 05:11:00,65.2,62.8,30.03,SW,225,0.0,1.0,92,0.00,,---,0.00,VWS V14.01,2013-05-09 09:11:00,
2013-05-09 05:16:00,65.2,62.5,30.03,WSW,242,3.0,3.0,91,0.00,,---,0.00,VWS V14.01,2013-05-09 09:16:00,
2013-05-09 05:21:00,65.1,62.4,30.03,West,260,0.0,2.0,91,0.00,,---,0.00,VWS V14.01,2013-05-09 09:21:00,
2013-05-09 05:26:00,65.0,62.3,30.03,SSW,200,0.0,2.0,91,0.00,,---,0.00,VWS V14.01,2013-05-09 09:26:00,
2013-05-09 05:31:00,64.9,62.2,30.03,South,191,0.0,0.0,91,0.00,,---,0.00,VWS V14.01,2013-05-09 09:31:00,
2013-05-09 05:36:00,64.8,62.1,30.03,WSW,257,1.0,1.0,91,0.00,,---,0.00,VWS V14.01,2013-05-09 09:36:00,
2013-05-09 05:41:00,64.7,62.0,30.03,WSW,255,0.0,1.0,91,0.00,,---,0.00,VWS V14.01,2013-05-09 09:41:00,
2013-05-09 05:46:00,64.6,62.2,30.03,WSW,242,0.0,0.0,92,0.00,,---,0.00,VWS V14.01,2013-05-09 09:46:00,
2013-05-09 05:51:00,64.6,62.2,30.03,West,263,0.0,1.0,92,0.00,,---,0.00,VWS V14.01,2013-05-09 09:51:00,
2013-05-09 05:56:00,64.4,62.0,30.03,WSW,248,0.0,1.0,92,0.00,,---,0.00,VWS V14.01,2013-05-09 09:56:00,
2013-05-09 06:01:00,64.3,61.9,30.04,WSW,249,0.0,0.0,92,0.00,,---,0.00,VWS V14.01,2013-05-09 10:01:00,
2013-05-09 06:06:00,64.0,61.6,30.03,WSW,252,0.0,0.0,92,0.00,,---,0.00,VWS V14.01,2013-05-09 10:06:00,
2013-05-09 06:11:00,63.9,61.5,30.03,WSW,240,0.0,1.0,92,0.00,,---,0.00,VWS V14.01,2013-05-09 10:11:00,
2013-05-09 06:16:00,63.9,61.5,30.04,WSW,258,0.0,0.0,92,0.00,,---,0.00,VWS V14.01,2013-05-09 10:16:00,
2013-05-09 06:21:00,63.9,61.5,30.04,SW,219,0.0,0.0,92,0.00,,---,0.00,VWS V14.01,2013-05-09 10:21:00,
2013-05-09 06:26:00,63.8,61.4,30.04,West,271,1.0,1.0,92,0.00,,---,0.00,VWS V14.01,2013-05-09 10:26:00,
2013-05-09 06:31:00,63.9,61.5,30.05,WSW,245,1.0,2.0,92,0.00,,---,0.00,VWS V14.01,2013-05-09 10:31:00,
2013-05-09 06:36:00,63.9,61.5,30.05,West,271,0.0,2.0,92,0.00,,---,0.00,VWS V14.01,2013-05-09 10:36:00,
2013-05-09 06:41:00,63.9,61.5,30.05,West,271,3.0,4.0,92,0.00,,---,0.00,VWS V14.01,2013-05-09 10:41:00,
2013-05-09 06:46:00,64.2,61.8,30.06,West,277,3.0,3.0,92,0.00,,---,0.00,VWS V14.01,2013-05-09 10:46:00,
2013-05-09 06:51:00,64.6,61.9,30.06,West,267,3.0,3.0,91,0.00,,---,0.00,VWS V14.01,2013-05-09 10:51:00,
2013-05-09 06:56:00,64.9,62.2,30.06,WSW,252,3.0,4.0,91,0.00,,---,0.00,VWS V14.01,2013-05-09 10:56:00,
2013-05-09 07:01:00,65.2,62.2,30.07,West,269,2.0,3.0,90,0.00,,---,0.00,VWS V14.01,2013-05-09 11:01:00,
2013-05-09 07:06:00,65.3,62.0,30.07,West,262,2.0,4.0,89,0.00,,---,0.00,VWS V14.01,2013-05-09 11:06:00,
2013-05-09 07:11:00,65.5,61.9,30.07,West,260,6.0,6.0,88,0.00,,---,0.00,VWS V14.01,2013-05-09 11:11:00,
2013-05-09 07:16:00,65.6,61.6,30.07,West,266,3.0,5.0,87,0.00,,---,0.00,VWS V14.01,2013-05-09 11:16:00,
2013-05-09 07:21:00,65.9,61.9,30.07,SW,233,4.0,4.0,87,0.00,,---,0.00,VWS V14.01,2013-05-09 11:21:00,
2013-05-09 07:26:00,66.1,61.8,30.07,WSW,258,2.0,3.0,86,0.00,,---,0.00,VWS V14.01,2013-05-09 11:26:00,
2013-05-09 07:31:00,66.4,62.1,30.08,West,259,2.0,3.0,86,0.00,,---,0.00,VWS V14.01,2013-05-09 11:31:00,
2013-05-09 07:36:00,66.7,62.0,30.08,WSW,243,2.0,4.0,85,0.00,,---,0.00,VWS V14.01,2013-05-09 11:36:00,
2013-05-09 07:41:00,66.9,61.9,30.08,WSW,253,4.0,5.0,84,0.00,,---,0.00,VWS V14.01,2013-05-09 11:41:00,
2013-05-09 07:46:00,67.1,62.1,30.08,WSW,253,4.0,5.0,84,0.00,,---,0.00,VWS V14.01,2013-05-09 11:46:00,
2013-05-09 07:51:00,67.4,62.4,30.08,West,271,3.0,3.0,84,0.00,,---,0.00,VWS V14.01,2013-05-09 11:51:00,
2013-05-09 07:56:00,67.6,62.3,30.08,WSW,256,5.0,7.0,83,0.00,,---,0.00,VWS V14.01,2013-05-09 11:56:00,
2013-05-09 08:01:00,67.8,62.1,30.08,WNW,288,6.0,7.0,82,0.00,,---,0.00,VWS V14.01,2013-05-09 12:01:00,
2013-05-09 08:06:00,67.8,61.8,30.08,West,269,3.0,6.0,81,0.00,,---,0.00,VWS V14.01,2013-05-09 12:06:00,
2013-05-09 08:11:00,67.9,61.9,30.08,West,276,2.0,4.0,81,0.00,,---,0.00,VWS V14.01,2013-05-09 12:11:00,
2013-05-09 08:16:00,68.1,61.7,30.08,West,267,4.0,5.0,80,0.00,,---,0.00,VWS V14.01,2013-05-09 12:16:00,
2013-05-09 08:21:00,68.2,61.1,30.08,West,259,7.0,9.0,78,0.00,,---,0.00,VWS V14.01,2013-05-09 12:21:00,
2013-05-09 08:26:00,68.3,61.5,30.09,SW,232,0.0,4.0,79,0.00,,---,0.00,VWS V14.01,2013-05-09 12:26:00,
2013-05-09 08:31:00,68.5,61.7,30.09,WNW,284,7.0,8.0,79,0.00,,---,0.00,VWS V14.01,2013-05-09 12:31:00,
2013-05-09 08:36:00,68.6,61.8,30.09,West,271,5.0,6.0,79,0.00,,---,0.00,VWS V14.01,2013-05-09 12:36:00,
2013-05-09 08:41:00,68.8,61.3,30.09,WSW,257,6.0,9.0,77,0.00,,---,0.00,VWS V14.01,2013-05-09 12:41:00,
2013-05-09 08:46:00,69.1,62.0,30.09,WNW,287,4.0,5.0,78,0.00,,---,0.00,VWS V14.01,2013-05-09 12:46:00,
2013-05-09 08:51:00,69.3,61.4,30.09,West,269,3.0,8.0,76,0.00,,---,0.00,VWS V14.01,2013-05-09 12:51:00,
2013-05-09 08:56:00,69.3,61.4,30.09,WNW,285,5.0,8.0,76,0.00,,---,0.00,VWS V14.01,2013-05-09 12:56:00,
2013-05-09 09:01:00,69.5,61.6,30.09,West,269,6.0,8.0,76,0.00,,---,0.00,VWS V14.01,2013-05-09 13:01:00,
2013-05-09 09:06:00,69.6,61.3,30.09,West,273,7.0,7.0,75,0.00,,---,0.00,VWS V14.01,2013-05-09 13:06:00,
2013-05-09 09:11:00,69.8,61.9,30.10,WSW,250,7.0,7.0,76,0.00,,---,0.00,VWS V14.01,2013-05-09 13:11:00,
2013-05-09 09:16:00,70.0,61.7,30.10,West,273,5.0,6.0,75,0.00,,---,0.00,VWS V14.01,2013-05-09 13:16:00,
2013-05-09 09:21:00,70.1,61.4,30.10,WSW,257,3.0,5.0,74,0.00,,---,0.00,VWS V14.01,2013-05-09 13:21:00,
2013-05-09 09:26:00,70.6,61.5,30.10,SSW,212,3.0,6.0,73,0.00,,---,0.00,VWS V14.01,2013-05-09 13:26:00,
2013-05-09 09:31:00,70.9,62.2,30.10,West,262,6.0,6.0,74,0.00,,---,0.00,VWS V14.01,2013-05-09 13:31:00,
2013-05-09 09:36:00,71.2,61.7,30.10,WNW,285,2.0,4.0,72,0.00,,---,0.00,VWS V14.01,2013-05-09 13:36:00,
2013-05-09 09:41:00,71.4,61.5,30.10,West,267,5.0,6.0,71,0.00,,---,0.00,VWS V14.01,2013-05-09 13:41:00,
2013-05-09 09:46:00,71.6,62.5,30.10,West,278,7.0,8.0,73,0.00,,---,0.00,VWS V14.01,2013-05-09 13:46:00,
2013-05-09 09:51:00,71.8,62.3,30.10,West,280,6.0,8.0,72,0.00,,---,0.00,VWS V14.01,2013-05-09 13:51:00,
2013-05-09 09:56:00,72.0,62.1,30.10,West,274,6.0,7.0,71,0.00,,---,0.00,VWS V14.01,2013-05-09 13:56:00,
2013-05-09 10:01:00,72.2,61.9,30.10,WSW,243,4.0,6.0,70,0.00,,---,0.00,VWS V14.01,2013-05-09 14:01:00,
2013-05-09 10:06:00,72.7,62.8,30.10,WSW,245,3.0,7.0,71,0.00,,---,0.00,VWS V14.01,2013-05-09 14:06:00,
2013-05-09 10:11:00,73.0,62.7,30.10,West,266,5.0,5.0,70,0.00,,---,0.00,VWS V14.01,2013-05-09 14:11:00,
2013-05-09 10:16:00,73.2,62.4,30.10,West,271,4.0,6.0,69,0.00,,---,0.00,VWS V14.01,2013-05-09 14:16:00,
2013-05-09 10:21:00,73.7,62.5,30.09,WSW,257,2.0,4.0,68,0.00,,---,0.00,VWS V14.01,2013-05-09 14:21:00,
2013-05-09 10:26:00,74.1,63.3,30.09,West,264,2.0,3.0,69,0.00,,---,0.00,VWS V14.01,2013-05-09 14:26:00,
2013-05-09 10:31:00,74.5,64.1,30.09,WNW,288,2.0,4.0,70,0.00,,---,0.00,VWS V14.01,2013-05-09 14:31:00,
2013-05-09 10:36:00,74.5,62.8,30.09,WSW,256,6.0,7.0,67,0.00,,---,0.00,VWS V14.01,2013-05-09 14:36:00,
2013-05-09 10:41:00,74.8,64.4,30.09,WSW,248,3.0,7.0,70,0.00,,---,0.00,VWS V14.01,2013-05-09 14:41:00,
2013-05-09 10:46:00,75.0,63.3,30.09,WNW,294,7.0,7.0,67,0.00,,---,0.00,VWS V14.01,2013-05-09 14:46:00,
2013-05-09 10:51:00,74.9,63.2,30.10,West,269,4.0,8.0,67,0.00,,---,0.00,VWS V14.01,2013-05-09 14:51:00,
2013-05-09 10:56:00,75.1,63.4,30.10,SW,233,6.0,6.0,67,0.00,,---,0.00,VWS V14.01,2013-05-09 14:56:00,
2013-05-09 11:01:00,75.4,63.3,30.10,West,259,2.0,6.0,66,0.00,,---,0.00,VWS V14.01,2013-05-09 15:01:00,
2013-05-09 11:06:00,75.9,63.7,30.10,WNW,283,5.0,5.0,66,0.00,,---,0.00,VWS V14.01,2013-05-09 15:06:00,
2013-05-09 11:11:00,76.1,63.9,30.09,WNW,288,10.0,10.0,66,0.00,,---,0.00,VWS V14.01,2013-05-09 15:11:00,
2013-05-09 11:16:00,76.2,63.1,30.10,WSW,249,4.0,5.0,64,0.00,,---,0.00,VWS V14.01,2013-05-09 15:16:00,
2013-05-09 11:21:00,76.4,63.3,30.09,WSW,257,4.0,8.0,64,0.00,,---,0.00,VWS V14.01,2013-05-09 15:21:00,
2013-05-09 11:26:00,76.6,63.5,30.09,WNW,284,9.0,9.0,64,0.00,,---,0.00,VWS V14.01,2013-05-09 15:26:00,
2013-05-09 11:31:00,77.0,63.9,30.10,WSW,248,6.0,7.0,64,0.00,,---,0.00,VWS V14.01,2013-05-09 15:31:00,
2013-05-09 11:36:00,77.1,64.0,30.09,NW,306,4.0,7.0,64,0.00,,---,0.00,VWS V14.01,2013-05-09 15:36:00,
2013-05-09 11:41:00,77.4,64.7,30.10,West,263,6.0,7.0,65,0.00,,---,0.00,VWS V14.01,2013-05-09 15:41:00,
2013-05-09 11:46:00,77.6,64.0,30.10,WSW,246,6.0,7.0,63,0.00,,---,0.00,VWS V14.01,2013-05-09 15:46:00,
2013-05-09 11:51:00,77.7,63.7,30.10,WNW,302,4.0,8.0,62,0.00,,---,0.00,VWS V14.01,2013-05-09 15:51:00,
2013-05-09 11:56:00,77.9,64.3,30.10,WSW,252,4.0,12.0,63,0.00,,---,0.00,VWS V14.01,2013-05-09 15:56:00,
2013-05-09 12:01:00,77.7,64.1,30.10,SW,221,8.0,8.0,63,0.00,,---,0.00,VWS V14.01,2013-05-09 16:01:00,
2013-05-09 12:06:00,78.3,66.0,30.10,South,172,2.0,3.0,66,0.00,,---,0.00,VWS V14.01,2013-05-09 16:06:00,
2013-05-09 12:11:00,78.1,64.5,30.10,West,259,3.0,4.0,63,0.00,,---,0.00,VWS V14.01,2013-05-09 16:11:00,
2013-05-09 12:16:00,78.3,65.1,30.10,SW,219,4.0,5.0,64,0.00,,---,0.00,VWS V14.01,2013-05-09 16:16:00,
2013-05-09 12:21:00,78.5,65.3,30.10,SSW,198,3.0,3.0,64,0.00,,---,0.00,VWS V14.01,2013-05-09 16:21:00,
2013-05-09 12:26:00,78.9,65.2,30.10,WSW,245,6.0,7.0,63,0.00,,---,0.00,VWS V14.01,2013-05-09 16:26:00,
2013-05-09 12:31:00,78.3,64.2,30.10,WSW,257,5.0,9.0,62,0.00,,---,0.00,VWS V14.01,2013-05-09 16:31:00,
2013-05-09 12:36:00,78.5,64.9,30.10,SSE,165,1.0,5.0,63,0.00,,---,0.00,VWS V14.01,2013-05-09 16:36:00,
2013-05-09 12:41:00,79.4,65.7,30.10,SSW,207,7.0,7.0,63,0.00,,---,0.00,VWS V14.01,2013-05-09 16:41:00,
2013-05-09 12:46:00,79.3,66.1,30.10,SW,219,4.0,5.0,64,0.00,,---,0.00,VWS V14.01,2013-05-09 16:46:00,
2013-05-09 12:51:00,79.0,65.8,30.10,West,260,3.0,4.0,64,0.00,,---,0.00,VWS V14.01,2013-05-09 16:51:00,
2013-05-09 12:56:00,79.1,65.0,30.09,SSW,208,2.0,8.0,62,0.00,,---,0.00,VWS V14.01,2013-05-09 16:56:00,
2013-05-09 13:01:00,79.6,65.9,30.09,SSW,193,3.0,6.0,63,0.00,,---,0.00,VWS V14.01,2013-05-09 17:01:00,
2013-05-09 13:06:00,79.4,64.3,30.09,WSW,252,12.0,12.0,60,0.00,,---,0.00,VWS V14.01,2013-05-09 17:06:00,
2013-05-09 13:11:00,79.4,66.2,30.09,SSW,203,3.0,5.0,64,0.00,,---,0.00,VWS V14.01,2013-05-09 17:11:00,
2013-05-09 13:16:00,79.5,66.3,30.09,SW,224,4.0,5.0,64,0.00,,---,0.00,VWS V14.01,2013-05-09 17:16:00,
2013-05-09 13:21:00,79.6,65.9,30.09,South,176,7.0,8.0,63,0.00,,---,0.00,VWS V14.01,2013-05-09 17:21:00,
2013-05-09 13:26:00,79.8,66.1,30.09,West,273,3.0,6.0,63,0.00,,---,0.00,VWS V14.01,2013-05-09 17:26:00,
2013-05-09 13:31:00,80.0,65.8,30.09,SW,231,3.0,9.0,62,0.00,,---,0.00,VWS V14.01,2013-05-09 17:31:00,
2013-05-09 13:36:00,80.1,65.9,30.09,West,263,3.0,11.0,62,0.00,,---,0.00,VWS V14.01,2013-05-09 17:36:00,
2013-05-09 13:41:00,79.9,65.7,30.09,SW,236,8.0,9.0,62,0.00,,---,0.00,VWS V14.01,2013-05-09 17:41:00,
2013-05-09 13:46:00,79.9,66.7,30.09,SSW,207,7.0,9.0,64,0.00,,---,0.00,VWS V14.01,2013-05-09 17:46:00,
2013-05-09 13:51:00,80.4,66.2,30.09,WSW,257,1.0,5.0,62,0.00,,---,0.00,VWS V14.01,2013-05-09 17:51:00,
2013-05-09 13:56:00,80.6,65.9,30.09,SSW,212,5.0,6.0,61,0.00,,---,0.00,VWS V14.01,2013-05-09 17:56:00,
2013-05-09 14:01:00,80.2,66.9,30.09,SSE,167,0.0,7.0,64,0.00,,---,0.00,VWS V14.01,2013-05-09 18:01:00,
2013-05-09 14:06:00,80.0,64.9,30.09,SW,214,7.0,10.0,60,0.00,,---,0.00,VWS V14.01,2013-05-09 18:06:00,
2013-05-09 14:11:00,80.1,66.4,30.08,South,183,1.0,7.0,63,0.00,,---,0.00,VWS V14.01,2013-05-09 18:11:00,
2013-05-09 14:16:00,80.1,67.3,30.08,SSW,212,4.0,6.0,65,0.00,,---,0.00,VWS V14.01,2013-05-09 18:16:00,
2013-05-09 14:21:00,80.4,66.7,30.08,SSW,199,5.0,5.0,63,0.00,,---,0.00,VWS V14.01,2013-05-09 18:21:00,
2013-05-09 14:26:00,80.1,66.8,30.08,SSE,160,4.0,11.0,64,0.00,,---,0.00,VWS V14.01,2013-05-09 18:26:00,
2013-05-09 14:31:00,79.7,66.9,30.08,South,169,10.0,13.0,65,0.00,,---,0.00,VWS V14.01,2013-05-09 18:31:00,
2013-05-09 14:36:00,79.1,66.8,30.08,South,176,8.0,9.0,66,0.00,,---,0.00,VWS V14.01,2013-05-09 18:36:00,
2013-05-09 14:41:00,79.2,67.3,30.08,SE,139,4.0,8.0,67,0.00,,---,0.00,VWS V14.01,2013-05-09 18:41:00,
2013-05-09 14:46:00,79.1,67.2,30.08,SSE,153,8.0,13.0,67,0.00,,---,0.00,VWS V14.01,2013-05-09 18:46:00,
2013-05-09 14:51:00,78.7,66.0,30.08,SSE,165,8.0,11.0,65,0.00,,---,0.00,VWS V14.01,2013-05-09 18:51:00,
2013-05-09 14:56:00,78.5,65.8,30.07,SSE,151,4.0,6.0,65,0.00,,---,0.00,VWS V14.01,2013-05-09 18:56:00,
2013-05-09 15:01:00,78.8,66.5,30.07,SSE,153,5.0,10.0,66,0.00,,---,0.00,VWS V14.01,2013-05-09 19:01:00,
2013-05-09 15:06:00,79.2,66.9,30.07,South,186,12.0,12.0,66,0.00,,---,0.00,VWS V14.01,2013-05-09 19:06:00,
2013-05-09 15:11:00,79.0,66.2,30.07,SE,146,5.0,16.0,65,0.00,,---,0.00,VWS V14.01,2013-05-09 19:11:00,
2013-05-09 15:16:00,79.1,66.8,30.07,SSE,158,10.0,10.0,66,0.00,,---,0.00,VWS V14.01,2013-05-09 19:16:00,
2013-05-09 15:21:00,78.7,66.4,30.06,SSE,148,10.0,12.0,66,0.00,,---,0.00,VWS V14.01,2013-05-09 19:21:00,
2013-05-09 15:26:00,78.4,66.1,30.07,SSW,194,2.0,6.0,66,0.00,,---,0.00,VWS V14.01,2013-05-09 19:26:00,
2013-05-09 15:31:00,78.0,65.7,30.06,South,172,5.0,6.0,66,0.00,,---,0.00,VWS V14.01,2013-05-09 19:31:00,
2013-05-09 15:36:00,78.1,65.8,30.06,SE,142,6.0,11.0,66,0.00,,---,0.00,VWS V14.01,2013-05-09 19:36:00,
2013-05-09 15:41:00,78.7,66.4,30.06,SSE,158,7.0,10.0,66,0.00,,---,0.00,VWS V14.01,2013-05-09 19:41:00,
2013-05-09 15:46:00,78.6,65.4,30.06,SSE,161,10.0,10.0,64,0.00,,---,0.00,VWS V14.01,2013-05-09 19:46:00,
2013-05-09 15:51:00,78.4,64.8,30.06,SSE,156,8.0,10.0,63,0.00,,---,0.00,VWS V14.01,2013-05-09 19:51:00,
2013-05-09 15:56:00,78.1,65.4,30.06,SSW,207,5.0,10.0,65,0.00,,---,0.00,VWS V14.01,2013-05-09 19:56:00,
2013-05-09 16:01:00,77.9,65.6,30.05,SSE,152,7.0,8.0,66,0.00,,---,0.00,VWS V14.01,2013-05-09 20:01:00,
2013-05-09 16:06:00,77.6,64.5,30.06,SSW,207,9.0,12.0,64,0.00,,---,0.00,VWS V14.01,2013-05-09 20:06:00,
2013-05-09 16:11:00,77.4,65.6,30.05,SSE,165,13.0,13.0,67,0.00,,---,0.00,VWS V14.01,2013-05-09 20:11:00,
2013-05-09 16:16:00,77.6,64.9,30.05,SSE,162,3.0,12.0,65,0.00,,---,0.00,VWS V14.01,2013-05-09 20:16:00,
2013-05-09 16:21:00,78.0,64.4,30.05,SSW,199,9.0,10.0,63,0.00,,---,0.00,VWS V14.01,2013-05-09 20:21:00,
2013-05-09 16:26:00,77.2,64.5,30.05,SSE,167,12.0,13.0,65,0.00,,---,0.00,VWS V14.01,2013-05-09 20:26:00,
2013-05-09 16:31:00,77.2,65.4,30.05,WSW,240,5.0,11.0,67,0.00,,---,0.00,VWS V14.01,2013-05-09 20:31:00,
2013-05-09 16:36:00,77.5,65.3,30.05,South,188,4.0,13.0,66,0.00,,---,0.00,VWS V14.01,2013-05-09 20:36:00,
2013-05-09 16:41:00,77.3,65.5,30.05,SSW,192,9.0,11.0,67,0.00,,---,0.00,VWS V14.01,2013-05-09 20:41:00,
2013-05-09 16:46:00,77.5,65.3,30.05,South,186,7.0,10.0,66,0.00,,---,0.00,VWS V14.01,2013-05-09 20:46:00,
2013-05-09 16:51:00,77.5,65.7,30.05,SE,143,8.0,11.0,67,0.00,,---,0.00,VWS V14.01,2013-05-09 20:51:00,
2013-05-09 16:56:00,77.3,65.5,30.05,ESE,119,4.0,8.0,67,0.00,,---,0.00,VWS V14.01,2013-05-09 20:56:00,